• Join FlightAware (Why Join?)
  • Login
  • US Flag 
12:24AM EST


 

Airport Tracker/Info


-or-


 

Live Flight TrackerFlight Track Log ✈ EJA102 ✈ 04-Jun-2014 ✈ KTEB - KORF

Flight Track Log - Related Links

Times and Time Zones

All times are in EDT time to prevent confusion due to time zone crossing. See the EJA102 flight status page for this flight to view local times or setup timezone preferences in your user account.

Time Position Orientation Groundspeed Altitude Reporting Facility
EDT Latitude Longitude Course Direction KTS MPH feet Rate Location/Type
08:06AM 40.8933 -74.0411 157° South 195 224 1,800  Level New York Center
08:07AM 40.9044 -74.1139 281° West 234 269 5,300 2,400 Climbing New York Center
08:09AM 40.8414 -74.1589 208° Southwest 272 313 6,800 2,220 Climbing New York Center
08:10AM 40.7617 -74.1894 196° South 281 323 9,900 2,040 Climbing New York Center
08:11AM 40.6792 -74.2200 196° South 311 358 11,100 2,040 Climbing New York Center
08:11AM 40.6167 -74.2167 178° South 331 381 13,300 2,520 Climbing New York TRACON
08:12AM 40.3711 -74.1802 157° South  Level FlightAware Approximate
08:14AM 40.3897 -74.2344 183° South 338 389 19,000  Level New York Center
08:15AM 40.3058 -74.2372 181° South 345 397 20,500 1,560 Climbing New York Center
08:16AM 40.2053 -74.2417 182° South 356 410 22,400 1,680 Climbing New York Center
08:17AM 40.0919 -74.2928 199° South 366 421 24,000 1,020 Climbing New York Center
08:17AM 40.0569 -74.3283 218° Southwest 361 415 24,000  Level Washington Center
08:18AM 40.0075 -74.3803 219° Southwest 384 442 24,000  Level New York Center
08:19AM 39.9208 -74.4714 219° Southwest 398 458 24,000  Level New York Center
08:20AM 39.8325 -74.5633 219° Southwest 403 464 24,000  Level New York Center
08:21AM 39.7444 -74.6553 219° Southwest 403 464 24,000  Level New York Center
08:22AM 39.6547 -74.7464 218° Southwest 403 464 24,000  Level New York Center
08:23AM 39.5586 -74.8236 212° Southwest 404 465 24,000  Level New York Center
08:24AM 39.4536 -74.8828 204° Southwest 406 467 24,000  Level New York Center
08:25AM 39.3292 -74.9547 204° Southwest 407 468 24,000  Level New York Center
08:26AM 39.2253 -75.0142 204° Southwest 407 468 24,000  Level New York Center
08:27AM 39.0997 -75.0833 203° Southwest 406 467 24,000  Level Washington Center
08:28AM 38.9936 -75.1456 205° Southwest 406 467 24,000  Level Washington Center
08:29AM 38.8917 -75.2075 205° Southwest 411 473 24,000  Level Washington Center
08:30AM 38.7878 -75.2642 203° Southwest 411 473 24,000  Level Washington Center
08:31AM 38.6836 -75.3258 205° Southwest 411 473 24,000 -60 Level Washington Center
08:32AM 38.5775 -75.3792 201° Southwest 411 473 23,900 -900 Descending Washington Center
08:33AM 38.4711 -75.4406 204° Southwest 416 479 22,300 -1,620 Descending Washington Center
08:34AM 38.3628 -75.5017 204° Southwest 416 479 20,700 -1,500 Descending Washington Center
08:35AM 38.2650 -75.5600 205° Southwest 421 484 19,300 -1,440 Descending Washington Center
08:36AM 38.1628 -75.6208 205° Southwest 421 484 17,800 -1,500 Descending Washington Center
08:37AM 38.0647 -75.6842 207° Southwest 409 471 16,300 -1,440 Descending Washington Center
08:38AM 37.9667 -75.7444 206° Southwest 398 458 14,900 -1,440 Descending Washington Center
08:38AM 37.9311 -75.7656 205° Southwest 388 447 14,600 -1,500 Descending Washington Center
08:39AM 37.8936 -75.7917 209° Southwest 386 444 14,000 -1,380 Descending Washington Center
08:39AM 37.8725 -75.8100 214° Southwest 393 452 13,600 -1,260 Descending Washington Center
08:40AM 37.7953 -75.8519 203° Southwest 382 440 12,700 -1,020 Descending Washington Center
08:40AM 37.7619 -75.8703 204° Southwest 393 452 12,600 -1,260 Descending Washington Center
08:41AM 37.6972 -75.9119 207° Southwest 355 409 11,300 -1,500 Descending Washington Center
08:41AM 37.6889 -75.9172 207° Southwest 371 427 11,100 -1,260 Descending Washington Center
08:42AM 37.6178 -75.9589 205° Southwest 343 395 10,200 -1,320 Descending Washington Center
08:42AM 37.6011 -75.9744 216° Southwest 356 410 9,800 -1,500 Descending Washington Center
08:43AM 37.5364 -76.0108 204° Southwest 299 344 8,700 -1,560 Descending Washington Center
08:43AM 37.5239 -76.0161 199° South 334 384 8,300 -1,500 Descending Washington Center
08:44AM 37.4592 -76.0289 189° South 286 329 7,200 -1,500 Descending Washington Center
08:44AM 37.4467 -76.0339 198° South 306 352 6,800 -1,440 Descending Washington Center
08:45AM 37.3861 -76.0389 184° South 274 315 5,800 -1,440 Descending Washington Center
08:45AM 37.3714 -76.0414 188° South 284 327 5,400 -1,500 Descending Washington Center
08:46AM 37.3108 -76.0489 186° South 265 305 4,300 -1,380 Descending Washington Center
08:46AM 37.2964 -76.0514 188° South 278 320 4,000 -240 Descending Washington Center
08:47AM 37.2336 -76.0614 187° South 255 293 4,100 -120 Climbing Washington Center
08:47AM 37.2275 -76.0614 180° South 267 307 3,900  Descending Washington Center
08:48AM 37.1692 -76.0531 174° South 241 277 4,100  Climbing Washington Center
08:48AM 37.1628 -76.0481 148° Southeast 248 285 3,900 -540 Descending Washington Center
08:49AM 37.1044 -76.0658 194° South 244 281 3,600 -780 Descending Washington Center
08:50AM 37.0353 -76.0992 201° Southwest 262 302 2,600 -1,020 Descending Washington Center
08:51AM 36.9683 -76.1300 200° South 241 277 1,600 -1,020 Descending Washington Center
08:52AM 36.9203 -76.1764 218° Southwest 144 166 500 -1,020 Descending Washington Center